Time;durP1;ratioP1;P1;durP2;ratioP2;P2;SDS_P1;SDS_P2;PMS_P1;PMS_P2;Temp;Humidity;BMP_temperature;BMP_pressure;BME280_temperature;BME280_humidity;BME280_pressure;Samples;Min_cycle;Max_cycle;Signal;HPM_P1;HPM_P2
2022/12/19 00:01:46;;;;;;;4.30;1.60;;;;;;;;;;6187215;28;20273;-77
2022/12/19 00:04:53;;;;;;;3.80;1.93;;;;;;;;;;6188901;28;20314;-77
2022/12/19 00:07:58;;;;;;;2.40;1.93;;;;;;;;;;6173983;28;20545;-77
2022/12/19 00:11:17;;;;;;;3.73;1.90;;;;;;;;;;6191607;28;20538;-76
2022/12/19 00:14:22;;;;;;;5.40;2.10;;;;;;;;;;6190702;28;20523;-78
2022/12/19 00:17:28;;;;;;;6.10;1.97;;;;;;;;;;6190564;28;20299;-76
2022/12/19 00:20:33;;;;;;;4.43;1.90;;;;;;;;;;6191089;28;20270;-77
2022/12/19 00:23:38;;;;;;;9.87;2.00;;;;;;;;;;6173416;28;20292;-77
2022/12/19 00:26:43;;;;;;;2.57;2.13;;;;;;;;;;6190944;28;20280;-76
2022/12/19 00:29:48;;;;;;;5.53;2.40;;;;;;;;;;6189845;28;20324;-77
2022/12/19 00:32:55;;;;;;;8.47;2.13;;;;;;;;;;6172568;28;20297;-78
2022/12/19 00:36:02;;;;;;;2.60;2.00;;;;;;;;;;6190630;28;20316;-76
2022/12/19 00:39:10;;;;;;;8.07;2.00;;;;;;;;;;6191176;28;20304;-76
2022/12/19 00:42:15;;;;;;;7.20;2.40;;;;;;;;;;6190262;28;20271;-76
2022/12/19 00:45:20;;;;;;;2.90;1.87;;;;;;;;;;6172779;28;20272;-76
2022/12/19 00:48:29;;;;;;;6.30;2.10;;;;;;;;;;6189797;28;20308;-76
2022/12/19 00:51:35;;;;;;;4.27;1.90;;;;;;;;;;6172994;28;20272;-74
2022/12/19 00:54:40;;;;;;;2.83;1.80;;;;;;;;;;6188469;28;20304;-75
2022/12/19 00:57:45;;;;;;;5.33;2.13;;;;;;;;;;6189442;28;20300;-75
2022/12/19 01:00:50;;;;;;;2.60;1.90;;;;;;;;;;6190145;28;20280;-75
2022/12/19 01:03:59;;;;;;;2.77;1.90;;;;;;;;;;6172316;28;20316;-76
2022/12/19 01:07:24;;;;;;;2.93;2.10;;;;;;;;;;6193242;28;20294;-74
2022/12/19 01:10:29;;;;;;;10.93;2.40;;;;;;;;;;6189765;28;20277;-74
2022/12/19 01:13:35;;;;;;;2.13;2.00;;;;;;;;;;6189163;28;20388;-74
2022/12/19 01:16:45;;;;;;;5.97;2.10;;;;;;;;;;6189121;28;20312;-74
2022/12/19 01:19:52;;;;;;;2.57;2.27;;;;;;;;;;6189019;28;20297;-74
2022/12/19 01:22:57;;;;;;;3.20;2.03;;;;;;;;;;6171545;28;20300;-74
2022/12/19 01:26:05;;;;;;;4.70;2.30;;;;;;;;;;6189221;28;20468;-73
2022/12/19 01:29:11;;;;;;;7.33;2.20;;;;;;;;;;6188632;28;20308;-74
2022/12/19 01:32:16;;;;;;;3.47;2.20;;;;;;;;;;6171156;28;20277;-74
2022/12/19 01:35:22;;;;;;;3.20;2.07;;;;;;;;;;6189266;28;20273;-76
2022/12/19 01:38:27;;;;;;;1.93;1.83;;;;;;;;;;6189022;28;20300;-76
2022/12/19 01:41:32;;;;;;;4.10;1.90;;;;;;;;;;6189733;28;20258;-76
2022/12/19 01:44:40;;;;;;;1.90;1.80;;;;;;;;;;6188704;28;20297;-77
2022/12/19 01:47:48;;;;;;;2.40;1.80;;;;;;;;;;6171303;28;20437;-78
2022/12/19 01:51:02;;;;;;;3.73;1.90;;;;;;;;;;6189169;28;20277;-78
2022/12/19 01:54:08;;;;;;;7.77;1.80;;;;;;;;;;6170939;28;20301;-77
2022/12/19 01:57:15;;;;;;;5.50;1.90;;;;;;;;;;6187195;28;20609;-77
2022/12/19 02:00:20;;;;;;;5.47;2.03;;;;;;;;;;6171168;28;20284;-77
2022/12/19 02:03:28;;;;;;;2.43;1.87;;;;;;;;;;6242576;23;20303;-84
2022/12/19 02:06:35;;;;;;;4.70;1.87;;;;;;;;;;6233435;28;20284;-86
2022/12/19 02:09:40;;;;;;;6.97;2.17;;;;;;;;;;6220969;28;20295;-86
2022/12/19 02:12:46;;;;;;;3.07;1.53;;;;;;;;;;6219818;28;20294;-86
2022/12/19 02:15:58;;;;;;;3.07;1.83;;;;;;;;;;6219767;28;20269;-87
2022/12/19 02:19:18;;;;;;;1.83;1.73;;;;;;;;;;6219062;28;20293;-87
2022/12/19 02:22:29;;;;;;;5.97;2.00;;;;;;;;;;6219615;28;20296;-87
2022/12/19 02:25:50;;;;;;;3.90;1.90;;;;;;;;;;6219763;28;20276;-86
2022/12/19 02:29:21;;;;;;;6.83;2.10;;;;;;;;;;6219016;28;20519;-86
2022/12/19 02:32:33;;;;;;;2.50;1.77;;;;;;;;;;6218521;28;20362;-86
2022/12/19 02:35:44;;;;;;;2.00;1.90;;;;;;;;;;6219568;28;20271;-86
2022/12/19 02:38:54;;;;;;;7.70;1.90;;;;;;;;;;6194342;28;20603;-87
2022/12/19 02:42:01;;;;;;;5.07;1.83;;;;;;;;;;6195229;28;20273;-87
2022/12/19 02:45:08;;;;;;;5.07;1.77;;;;;;;;;;6211063;28;20276;-86
2022/12/19 02:48:15;;;;;;;7.23;1.90;;;;;;;;;;6194083;28;20292;-86
2022/12/19 02:51:24;;;;;;;3.57;2.20;;;;;;;;;;6194438;28;20280;-87
2022/12/19 02:54:29;;;;;;;5.13;1.87;;;;;;;;;;6211215;28;20303;-86
2022/12/19 02:57:43;;;;;;;5.13;2.10;;;;;;;;;;6193461;28;20575;-87
2022/12/19 03:00:55;;;;;;;7.17;1.93;;;;;;;;;;6194002;28;20544;-87
2022/12/19 03:04:10;;;;;;;6.00;2.10;;;;;;;;;;6185626;28;20317;-86
2022/12/19 03:07:24;;;;;;;10.70;2.10;;;;;;;;;;6185420;28;20277;-86
2022/12/19 03:10:33;;;;;;;5.20;2.20;;;;;;;;;;6192539;28;20344;-85
2022/12/19 03:13:44;;;;;;;6.70;2.30;;;;;;;;;;6211447;28;20493;-86
2022/12/19 03:16:50;;;;;;;5.40;2.03;;;;;;;;;;6210685;28;20544;-87
2022/12/19 03:19:56;;;;;;;3.40;2.00;;;;;;;;;;6210089;28;20308;-86
2022/12/19 03:23:02;;;;;;;9.30;2.10;;;;;;;;;;6211063;28;20305;-86
2022/12/19 03:26:09;;;;;;;5.97;2.03;;;;;;;;;;6212278;28;20272;-86
2022/12/19 03:29:17;;;;;;;5.87;2.43;;;;;;;;;;6212325;28;20300;-86
2022/12/19 03:32:24;;;;;;;2.27;1.87;;;;;;;;;;6211175;28;20576;-87
2022/12/19 03:35:31;;;;;;;4.03;2.20;;;;;;;;;;6211605;28;20422;-87
2022/12/19 03:38:39;;;;;;;5.50;2.27;;;;;;;;;;6211301;28;20306;-87
2022/12/19 03:45:08;;;;;;;3.37;1.90;;;;;;;;;;6215302;28;20281;-86
2022/12/19 03:48:17;;;;;;;3.03;2.00;;;;;;;;;;6215186;28;20281;-86
2022/12/19 03:51:29;;;;;;;5.40;2.00;;;;;;;;;;6216433;28;20266;-86
2022/12/19 03:54:39;;;;;;;5.73;1.80;;;;;;;;;;6215850;28;20300;-87
2022/12/19 03:57:48;;;;;;;2.73;2.00;;;;;;;;;;6216312;28;20308;-86
2022/12/19 04:00:53;;;;;;;2.80;2.00;;;;;;;;;;6192298;28;20281;-87
2022/12/19 04:03:59;;;;;;;5.93;1.87;;;;;;;;;;6193583;28;20301;-86
2022/12/19 04:07:06;;;;;;;2.93;2.00;;;;;;;;;;6190086;28;20289;-88
2022/12/19 04:10:14;;;;;;;5.00;2.07;;;;;;;;;;6195860;28;20258;-86
2022/12/19 04:13:22;;;;;;;6.77;2.00;;;;;;;;;;6215702;28;20310;-87
2022/12/19 04:16:32;;;;;;;7.20;2.40;;;;;;;;;;6220551;28;20436;-85
2022/12/19 04:19:43;;;;;;;4.90;1.90;;;;;;;;;;6211034;28;20298;-85
2022/12/19 04:22:53;;;;;;;3.47;2.50;;;;;;;;;;6194604;28;20299;-86
2022/12/19 04:26:01;;;;;;;8.30;2.30;;;;;;;;;;6191226;28;20277;-87
2022/12/19 04:29:07;;;;;;;3.53;2.10;;;;;;;;;;6191248;28;20322;-86
2022/12/19 04:32:13;;;;;;;3.37;2.30;;;;;;;;;;6191256;28;20307;-86
2022/12/19 04:35:19;;;;;;;4.87;2.63;;;;;;;;;;6191667;28;20272;-87
2022/12/19 04:38:26;;;;;;;3.93;3.07;;;;;;;;;;6215455;28;20314;-87
2022/12/19 04:41:31;;;;;;;7.03;3.47;;;;;;;;;;6215425;28;20561;-87
2022/12/19 04:44:37;;;;;;;7.70;3.37;;;;;;;;;;6215254;28;20298;-86
2022/12/19 04:47:42;;;;;;;6.83;3.43;;;;;;;;;;6214294;28;20302;-87
2022/12/19 04:50:47;;;;;;;6.20;4.00;;;;;;;;;;6213479;28;20293;-86
2022/12/19 04:53:54;;;;;;;8.20;3.60;;;;;;;;;;6214880;28;20322;-88
2022/12/19 04:56:59;;;;;;;4.47;4.03;;;;;;;;;;6215425;28;20266;-86
2022/12/19 05:00:07;;;;;;;10.90;4.37;;;;;;;;;;6214422;28;20293;-87
2022/12/19 05:03:12;;;;;;;10.60;4.70;;;;;;;;;;6228199;28;20302;-86
2022/12/19 05:06:17;;;;;;;9.50;4.57;;;;;;;;;;6250022;28;20235;-85
2022/12/19 05:09:24;;;;;;;13.27;5.13;;;;;;;;;;6249866;28;20293;-86
2022/12/19 05:12:29;;;;;;;8.57;5.27;;;;;;;;;;6225455;28;20294;-86
2022/12/19 05:15:34;;;;;;;9.97;5.17;;;;;;;;;;6222309;28;20341;-85
2022/12/19 05:18:40;;;;;;;8.60;5.27;;;;;;;;;;6222751;28;20302;-85
2022/12/19 05:21:45;;;;;;;12.20;5.23;;;;;;;;;;6204674;28;20524;-85
2022/12/19 05:24:52;;;;;;;13.23;5.60;;;;;;;;;;6220861;28;20312;-87
2022/12/19 05:27:57;;;;;;;9.43;5.50;;;;;;;;;;6216279;28;20303;-86
2022/12/19 05:31:06;;;;;;;11.77;5.90;;;;;;;;;;6214793;28;20277;-87
2022/12/19 05:34:12;;;;;;;13.60;6.60;;;;;;;;;;6197158;28;20306;-87
2022/12/19 05:37:17;;;;;;;15.93;6.30;;;;;;;;;;6214240;28;20590;-87
2022/12/19 05:40:24;;;;;;;16.77;6.77;;;;;;;;;;6214630;28;20297;-87
2022/12/19 05:43:29;;;;;;;17.20;7.17;;;;;;;;;;6213719;28;20301;-86
2022/12/19 05:46:34;;;;;;;17.17;6.97;;;;;;;;;;6213182;28;20418;-87
2022/12/19 05:49:39;;;;;;;13.57;7.33;;;;;;;;;;6213907;28;20464;-87
2022/12/19 05:52:45;;;;;;;16.30;8.80;;;;;;;;;;6213595;28;20617;-87
2022/12/19 05:55:52;;;;;;;15.57;7.77;;;;;;;;;;6196606;28;20275;-86
2022/12/19 05:58:59;;;;;;;13.53;8.07;;;;;;;;;;6212261;28;20303;-87
2022/12/19 06:02:05;;;;;;;18.90;8.63;;;;;;;;;;6212440;28;20388;-87
2022/12/19 06:05:11;;;;;;;21.23;8.53;;;;;;;;;;6199839;28;20266;-89
2022/12/19 06:08:20;;;;;;;18.47;8.73;;;;;;;;;;6197426;28;20300;-86
2022/12/19 06:11:27;;;;;;;19.20;8.93;;;;;;;;;;6230352;28;20269;-86
2022/12/19 06:14:32;;;;;;;19.67;9.07;;;;;;;;;;6237501;28;20298;-87
2022/12/19 06:17:37;;;;;;;19.43;9.53;;;;;;;;;;6220030;28;20298;-86
2022/12/19 06:20:42;;;;;;;20.70;9.73;;;;;;;;;;6237472;28;20294;-87
2022/12/19 06:23:48;;;;;;;19.77;9.00;;;;;;;;;;6219787;28;20301;-90
2022/12/19 06:26:54;;;;;;;23.17;9.47;;;;;;;;;;6237961;28;20300;-89
2022/12/19 06:30:00;;;;;;;26.47;9.83;;;;;;;;;;6237491;28;20276;-87
2022/12/19 06:33:05;;;;;;;19.47;10.73;;;;;;;;;;6238602;28;20301;-89
2022/12/19 06:36:16;;;;;;;24.90;9.20;;;;;;;;;;6238102;28;20271;-89
2022/12/19 06:39:23;;;;;;;21.97;10.30;;;;;;;;;;6220518;28;20319;-89
2022/12/19 06:42:31;;;;;;;21.87;10.27;;;;;;;;;;6237463;28;20371;-89
2022/12/19 06:45:38;;;;;;;18.70;9.93;;;;;;;;;;6220396;28;20274;-89
2022/12/19 06:48:44;;;;;;;23.13;9.97;;;;;;;;;;6220535;28;20293;-87
2022/12/19 06:51:50;;;;;;;17.77;9.20;;;;;;;;;;6220113;28;20278;-90
2022/12/19 06:54:56;;;;;;;19.07;9.10;;;;;;;;;;6209569;28;20520;-87
2022/12/19 06:58:03;;;;;;;21.13;9.60;;;;;;;;;;6218839;28;20476;-87
2022/12/19 07:01:15;;;;;;;21.23;9.20;;;;;;;;;;6235059;28;20549;-87
2022/12/19 07:04:25;;;;;;;18.37;9.33;;;;;;;;;;6229896;28;20494;-86
2022/12/19 07:07:31;;;;;;;23.13;9.67;;;;;;;;;;6236033;28;20302;-87
2022/12/19 07:10:37;;;;;;;16.37;9.23;;;;;;;;;;6227886;28;20270;-88
2022/12/19 07:13:46;;;;;;;13.83;9.03;;;;;;;;;;6195690;28;20300;-87
2022/12/19 07:16:52;;;;;;;21.00;8.97;;;;;;;;;;6195313;28;20277;-87
2022/12/19 07:19:59;;;;;;;19.73;9.53;;;;;;;;;;6179741;28;20300;-87
2022/12/19 07:23:05;;;;;;;18.70;9.80;;;;;;;;;;6211373;28;20294;-87
2022/12/19 07:26:12;;;;;;;16.80;9.47;;;;;;;;;;6212405;28;20549;-87
2022/12/19 07:29:19;;;;;;;21.67;10.33;;;;;;;;;;6211554;28;20307;-86
2022/12/19 07:32:24;;;;;;;20.53;9.67;;;;;;;;;;6211613;28;20592;-87
2022/12/19 07:35:30;;;;;;;17.93;9.87;;;;;;;;;;6195026;28;20280;-86
2022/12/19 07:38:35;;;;;;;23.70;10.17;;;;;;;;;;6211245;28;20298;-87
2022/12/19 07:41:41;;;;;;;17.47;10.03;;;;;;;;;;6195000;28;20294;-87
2022/12/19 07:44:48;;;;;;;23.57;10.67;;;;;;;;;;6212255;28;20294;-87
2022/12/19 07:47:53;;;;;;;24.03;10.00;;;;;;;;;;6211888;28;20477;-87
2022/12/19 07:50:59;;;;;;;21.93;10.27;;;;;;;;;;6195034;28;20281;-87
2022/12/19 07:54:04;;;;;;;16.60;9.40;;;;;;;;;;6193684;28;20302;-88
2022/12/19 07:57:09;;;;;;;21.70;9.47;;;;;;;;;;6210661;28;20276;-87
2022/12/19 08:00:17;;;;;;;14.93;8.23;;;;;;;;;;6195070;28;20285;-87
2022/12/19 08:03:22;;;;;;;18.67;9.07;;;;;;;;;;6212392;28;20474;-87
2022/12/19 08:06:28;;;;;;;15.83;8.60;;;;;;;;;;6198548;28;20303;-88
2022/12/19 08:09:34;;;;;;;16.47;8.27;;;;;;;;;;6205460;28;20610;-87
2022/12/19 08:12:40;;;;;;;17.17;7.37;;;;;;;;;;6198656;28;20296;-87
2022/12/19 08:15:47;;;;;;;11.13;7.47;;;;;;;;;;6213460;28;20265;-87
2022/12/19 08:18:52;;;;;;;8.77;6.23;;;;;;;;;;6179415;28;20338;-87
2022/12/19 08:21:58;;;;;;;14.03;6.70;;;;;;;;;;6211936;28;20291;-85
2022/12/19 08:25:03;;;;;;;9.47;6.50;;;;;;;;;;6214453;28;20268;-86
2022/12/19 08:28:08;;;;;;;9.20;6.10;;;;;;;;;;6216450;28;20299;-86
2022/12/19 08:31:17;;;;;;;8.40;5.63;;;;;;;;;;6199118;28;20290;-86
2022/12/19 08:34:22;;;;;;;6.60;5.57;;;;;;;;;;6215765;28;20301;-84
2022/12/19 08:37:28;;;;;;;11.33;5.70;;;;;;;;;;6215922;28;20309;-87
2022/12/19 08:40:33;;;;;;;9.23;5.03;;;;;;;;;;6199702;28;20281;-86
2022/12/19 08:43:38;;;;;;;12.33;4.90;;;;;;;;;;6183684;28;20589;-88
2022/12/19 08:46:45;;;;;;;7.53;5.03;;;;;;;;;;6219278;28;20278;-85
2022/12/19 08:49:54;;;;;;;7.17;5.00;;;;;;;;;;6213001;28;20302;-85
2022/12/19 08:52:59;;;;;;;4.97;4.50;;;;;;;;;;6230331;28;20258;-85
2022/12/19 08:56:06;;;;;;;4.87;4.03;;;;;;;;;;6218235;28;20462;-87
2022/12/19 08:59:12;;;;;;;4.30;3.90;;;;;;;;;;6217216;28;20310;-86
2022/12/19 09:02:20;;;;;;;4.23;3.63;;;;;;;;;;6215533;28;20311;-85
2022/12/19 09:05:25;;;;;;;3.93;3.60;;;;;;;;;;6200188;28;20273;-85
2022/12/19 09:08:51;;;;;;;3.97;3.57;;;;;;;;;;6199026;28;20293;-85
2022/12/19 09:11:58;;;;;;;4.27;3.97;;;;;;;;;;6218631;28;20269;-86
2022/12/19 09:15:04;;;;;;;4.80;3.53;;;;;;;;;;6224535;28;20272;-87
2022/12/19 09:18:13;;;;;;;4.37;3.87;;;;;;;;;;6225796;28;20342;-85
2022/12/19 09:21:20;;;;;;;10.23;3.90;;;;;;;;;;6240436;28;20289;-85
2022/12/19 09:24:25;;;;;;;7.30;4.30;;;;;;;;;;6240456;28;20479;-86
2022/12/19 09:27:30;;;;;;;8.00;4.17;;;;;;;;;;6240612;28;20301;-85
2022/12/19 09:30:56;;;;;;;7.63;5.03;;;;;;;;;;6223850;28;20273;-86
2022/12/19 09:34:03;;;;;;;9.40;5.13;;;;;;;;;;6223740;28;20315;-86
2022/12/19 09:37:10;;;;;;;7.80;4.47;;;;;;;;;;6224861;28;20276;-86
2022/12/19 09:40:21;;;;;;;10.90;5.53;;;;;;;;;;6240768;28;20292;-86
2022/12/19 09:43:35;;;;;;;7.77;4.87;;;;;;;;;;6239504;28;20302;-86
2022/12/19 09:46:48;;;;;;;11.43;6.10;;;;;;;;;;6223058;28;20272;-86
2022/12/19 09:49:56;;;;;;;11.73;6.20;;;;;;;;;;6239307;28;20295;-86
2022/12/19 09:53:06;;;;;;;16.13;7.17;;;;;;;;;;6239169;28;20339;-88
2022/12/19 09:56:15;;;;;;;15.80;6.87;;;;;;;;;;6239260;28;20265;-85
2022/12/19 09:59:26;;;;;;;18.27;7.30;;;;;;;;;;6237934;28;20625;-87
2022/12/19 10:02:49;;;;;;;11.60;5.57;;;;;;;;;;6220719;28;20303;-86
2022/12/19 10:05:57;;;;;;;14.07;6.50;;;;;;;;;;6222291;28;20272;-85
2022/12/19 10:09:26;;;;;;;17.33;6.47;;;;;;;;;;6238139;28;20296;-86
2022/12/19 10:13:05;;;;;;;15.40;6.77;;;;;;;;;;6213685;28;20460;-85
2022/12/19 10:16:21;;;;;;;19.77;7.67;;;;;;;;;;6180744;28;20266;-86
2022/12/19 10:19:34;;;;;;;16.17;7.53;;;;;;;;;;6213584;28;20309;-85
2022/12/19 10:22:48;;;;;;;16.77;7.53;;;;;;;;;;6212772;28;20301;-87
2022/12/19 10:25:59;;;;;;;17.30;7.70;;;;;;;;;;6196824;28;20274;-85
2022/12/19 10:29:23;;;;;;;12.60;6.83;;;;;;;;;;6196085;28;20300;-86
2022/12/19 10:32:35;;;;;;;17.60;7.33;;;;;;;;;;6213308;28;20303;-87
2022/12/19 10:35:44;;;;;;;17.00;7.17;;;;;;;;;;6197093;28;20215;-86
2022/12/19 10:38:57;;;;;;;21.83;7.67;;;;;;;;;;6212912;28;20474;-85
2022/12/19 10:42:09;;;;;;;18.13;8.03;;;;;;;;;;6212468;28;20283;-86
2022/12/19 10:45:17;;;;;;;19.43;7.83;;;;;;;;;;6195280;28;20273;-82
2022/12/19 10:48:24;;;;;;;14.60;7.57;;;;;;;;;;6196495;28;20579;-85
2022/12/19 10:51:35;;;;;;;14.70;7.87;;;;;;;;;;6212432;28;20278;-81
2022/12/19 10:54:42;;;;;;;14.07;6.57;;;;;;;;;;6194367;28;20304;-82
2022/12/19 10:57:48;;;;;;;15.97;7.47;;;;;;;;;;6211164;28;20304;-85
2022/12/19 11:01:12;;;;;;;17.90;9.00;;;;;;;;;;6195846;28;20277;-88
2022/12/19 11:04:39;;;;;;;16.37;8.17;;;;;;;;;;6185901;28;20305;-87
2022/12/19 11:08:10;;;;;;;19.37;8.17;;;;;;;;;;6170241;28;20297;-87
2022/12/19 11:11:18;;;;;;;19.23;8.60;;;;;;;;;;6209221;28;20277;-86
2022/12/19 11:14:50;;;;;;;19.33;9.03;;;;;;;;;;6242134;28;20293;-85
2022/12/19 11:18:16;;;;;;;21.40;9.17;;;;;;;;;;6226181;28;20296;-85
2022/12/19 11:21:42;;;;;;;14.37;8.07;;;;;;;;;;6245804;28;20277;-86
2022/12/19 11:25:16;;;;;;;15.77;8.07;;;;;;;;;;6244088;28;20274;-84
2022/12/19 11:28:43;;;;;;;20.97;8.77;;;;;;;;;;6242619;28;20293;-85
2022/12/19 11:32:23;;;;;;;20.70;8.70;;;;;;;;;;6241206;28;20276;-86
2022/12/19 11:35:49;;;;;;;17.03;8.83;;;;;;;;;;6237913;28;20268;-87
2022/12/19 11:38:55;;;;;;;17.63;8.17;;;;;;;;;;6236997;28;20299;-86
2022/12/19 11:42:08;;;;;;;17.83;8.50;;;;;;;;;;6237161;28;20477;-86
2022/12/19 11:45:20;;;;;;;15.73;7.67;;;;;;;;;;6221118;28;20292;-86
2022/12/19 11:48:34;;;;;;;17.60;8.60;;;;;;;;;;6222060;28;20301;-86
2022/12/19 11:51:43;;;;;;;20.27;8.70;;;;;;;;;;6238890;28;20275;-86
2022/12/19 11:54:58;;;;;;;21.03;9.03;;;;;;;;;;6236717;28;20461;-86
2022/12/19 11:58:05;;;;;;;14.57;8.83;;;;;;;;;;6218618;28;20299;-86
2022/12/19 12:01:18;;;;;;;19.37;8.80;;;;;;;;;;6222755;28;20266;-87
2022/12/19 12:04:53;;;;;;;17.60;9.53;;;;;;;;;;6240696;28;20474;-85
2022/12/19 12:08:12;;;;;;;17.87;8.77;;;;;;;;;;6240580;28;20295;-86
2022/12/19 12:11:43;;;;;;;16.47;8.03;;;;;;;;;;6241898;28;20268;-87
2022/12/19 12:15:27;;;;;;;17.57;7.90;;;;;;;;;;6225440;28;20274;-86
2022/12/19 12:19:03;;;;;;;15.47;7.87;;;;;;;;;;6240822;28;20303;-85
2022/12/19 12:22:42;;;;;;;18.77;8.20;;;;;;;;;;6241051;28;20295;-86
2022/12/19 12:26:16;;;;;;;17.93;8.43;;;;;;;;;;6222984;28;20545;-86
2022/12/19 12:29:49;;;;;;;17.77;8.07;;;;;;;;;;6239945;28;20303;-87
2022/12/19 12:33:21;;;;;;;14.80;7.90;;;;;;;;;;6240092;28;20307;-86
2022/12/19 12:36:53;;;;;;;13.60;6.70;;;;;;;;;;6240330;28;20273;-86
2022/12/19 12:40:48;;;;;;;17.23;8.10;;;;;;;;;;6224007;28;20968;-86
2022/12/19 12:44:06;;;;;;;18.30;8.30;;;;;;;;;;6220601;28;20319;-86
2022/12/19 12:47:17;;;;;;;17.27;8.70;;;;;;;;;;6223651;28;20288;-87
2022/12/19 12:50:25;;;;;;;17.97;8.50;;;;;;;;;;6240412;28;20271;-86
2022/12/19 12:53:34;;;;;;;19.40;7.40;;;;;;;;;;6224388;28;20301;-88
2022/12/19 12:56:40;;;;;;;20.40;9.10;;;;;;;;;;6241969;28;20278;-86
2022/12/19 12:59:47;;;;;;;16.83;8.00;;;;;;;;;;6223680;28;20295;-87
2022/12/19 13:02:57;;;;;;;17.10;7.13;;;;;;;;;;6240650;28;20296;-85
2022/12/19 13:06:10;;;;;;;17.60;8.43;;;;;;;;;;6226451;28;20273;-86
2022/12/19 13:09:26;;;;;;;21.53;9.33;;;;;;;;;;6223900;28;20307;-88
2022/12/19 13:13:01;;;;;;;21.07;8.97;;;;;;;;;;6215999;28;20466;-87
2022/12/19 13:16:52;;;;;;;21.33;9.17;;;;;;;;;;6215891;28;20270;-86
2022/12/19 13:20:40;;;;;;;19.07;8.27;;;;;;;;;;6215471;28;20283;-86
2022/12/19 13:23:48;;;;;;;21.80;9.43;;;;;;;;;;6215909;28;20301;-88
2022/12/19 13:26:56;;;;;;;17.97;8.70;;;;;;;;;;6199795;28;20277;-84
2022/12/19 13:30:16;;;;;;;18.27;8.57;;;;;;;;;;6216935;28;20273;-86
2022/12/19 13:33:21;;;;;;;17.90;8.40;;;;;;;;;;6216605;28;20295;-87
2022/12/19 13:36:49;;;;;;;14.90;8.53;;;;;;;;;;6218331;28;20283;-86
2022/12/19 13:40:24;;;;;;;21.77;8.70;;;;;;;;;;6214471;28;20280;-87
2022/12/19 13:43:46;;;;;;;23.77;8.83;;;;;;;;;;6229854;28;20272;-88
2022/12/19 13:46:52;;;;;;;16.97;8.27;;;;;;;;;;6230478;28;20237;-86
2022/12/19 13:49:58;;;;;;;25.27;8.83;;;;;;;;;;6212511;28;20281;-86
2022/12/19 13:53:11;;;;;;;19.80;7.80;;;;;;;;;;6230304;28;20246;-87
2022/12/19 13:56:20;;;;;;;20.70;7.83;;;;;;;;;;6191597;28;20268;-87
2022/12/19 13:59:30;;;;;;;22.17;8.40;;;;;;;;;;6219656;28;20301;-87
2022/12/19 14:02:43;;;;;;;24.80;9.33;;;;;;;;;;6204507;28;20319;-87
2022/12/19 14:05:51;;;;;;;22.97;9.03;;;;;;;;;;6199866;28;20605;-87
2022/12/19 14:09:23;;;;;;;21.53;9.00;;;;;;;;;;6214889;28;20303;-87
2022/12/19 14:16:34;;;;;;;23.90;8.90;;;;;;;;;;6221433;28;20260;-87
2022/12/19 14:19:51;;;;;;;17.50;8.73;;;;;;;;;;6200131;28;20300;-87
2022/12/19 14:23:17;;;;;;;17.83;8.07;;;;;;;;;;6168833;28;20321;-86
2022/12/19 14:26:44;;;;;;;23.23;8.63;;;;;;;;;;6184283;28;20510;-88
2022/12/19 14:30:17;;;;;;;22.83;8.47;;;;;;;;;;6214793;28;20274;-88
2022/12/19 14:33:40;;;;;;;19.57;7.40;;;;;;;;;;6214619;28;20302;-88
2022/12/19 14:37:06;;;;;;;19.77;8.70;;;;;;;;;;6214247;28;20275;-86
2022/12/19 14:40:22;;;;;;;22.63;8.57;;;;;;;;;;6214886;28;20275;-87
2022/12/19 14:43:46;;;;;;;21.13;8.93;;;;;;;;;;6197493;28;20304;-88
2022/12/19 14:47:15;;;;;;;25.03;8.80;;;;;;;;;;6200223;28;20268;-88
2022/12/19 14:50:44;;;;;;;21.37;8.63;;;;;;;;;;6215197;28;20279;-87
2022/12/19 14:54:19;;;;;;;16.20;7.93;;;;;;;;;;6214371;28;20321;-88
2022/12/19 14:57:44;;;;;;;22.53;8.73;;;;;;;;;;6197158;28;20299;-87
2022/12/19 15:01:22;;;;;;;20.63;8.47;;;;;;;;;;6195905;28;20286;-86
2022/12/19 15:04:34;;;;;;;14.60;8.17;;;;;;;;;;6191607;28;20308;-86
2022/12/19 15:08:00;;;;;;;23.27;8.27;;;;;;;;;;6213342;28;20300;-86
2022/12/19 15:14:50;;;;;;;26.07;9.33;;;;;;;;;;6211812;28;20296;-87
2022/12/19 15:18:16;;;;;;;22.60;8.77;;;;;;;;;;6213724;28;20310;-86
2022/12/19 15:21:24;;;;;;;17.87;8.07;;;;;;;;;;6196771;28;20264;-89
2022/12/19 15:24:33;;;;;;;16.67;8.23;;;;;;;;;;6195750;28;20297;-87
2022/12/19 15:27:39;;;;;;;22.63;9.17;;;;;;;;;;6213775;28;20303;-88
2022/12/19 15:30:47;;;;;;;18.43;8.30;;;;;;;;;;6196847;28;20286;-88
2022/12/19 15:33:58;;;;;;;18.60;9.17;;;;;;;;;;6198907;28;20298;-87
2022/12/19 15:37:24;;;;;;;21.67;8.90;;;;;;;;;;6235502;28;20259;-87
2022/12/19 15:40:33;;;;;;;18.90;7.60;;;;;;;;;;6235635;28;20227;-85
2022/12/19 15:43:39;;;;;;;20.57;9.00;;;;;;;;;;6206624;28;20297;-83
2022/12/19 15:47:06;;;;;;;20.27;9.67;;;;;;;;;;6226599;28;20288;-87
2022/12/19 15:50:18;;;;;;;15.63;8.43;;;;;;;;;;6208753;28;20540;-81
2022/12/19 15:53:28;;;;;;;17.60;8.73;;;;;;;;;;6218943;28;20289;-84
2022/12/19 15:56:55;;;;;;;19.23;8.97;;;;;;;;;;6220549;28;20281;-88
2022/12/19 16:00:06;;;;;;;22.20;9.37;;;;;;;;;;6220157;28;20283;-88
2022/12/19 16:03:15;;;;;;;23.20;10.07;;;;;;;;;;6221339;28;20291;-86
2022/12/19 16:06:30;;;;;;;33.73;10.27;;;;;;;;;;6206859;28;20303;-83
2022/12/19 16:09:51;;;;;;;21.83;9.63;;;;;;;;;;6189993;28;20301;-91
2022/12/19 16:12:59;;;;;;;20.07;9.80;;;;;;;;;;6221644;28;20643;-91
2022/12/19 16:16:11;;;;;;;22.63;10.03;;;;;;;;;;6222550;28;20272;-87
2022/12/19 16:19:24;;;;;;;20.93;10.50;;;;;;;;;;6203447;28;20508;-88
2022/12/19 16:22:32;;;;;;;25.17;10.40;;;;;;;;;;6188353;28;20577;-88
2022/12/19 16:25:41;;;;;;;24.00;9.53;;;;;;;;;;6203947;28;20298;-87
2022/12/19 16:28:51;;;;;;;25.23;10.73;;;;;;;;;;6210168;28;20308;-86
2022/12/19 16:31:59;;;;;;;24.30;9.83;;;;;;;;;;6188677;28;20278;-86
2022/12/19 16:35:15;;;;;;;24.23;9.67;;;;;;;;;;6205563;28;20272;-86
2022/12/19 16:38:40;;;;;;;24.50;9.63;;;;;;;;;;6220742;28;20312;-87
2022/12/19 16:41:46;;;;;;;24.63;10.00;;;;;;;;;;6202720;28;20280;-88
2022/12/19 16:44:54;;;;;;;27.73;10.00;;;;;;;;;;6218633;28;20312;-87
2022/12/19 16:48:00;;;;;;;27.60;10.80;;;;;;;;;;6182561;28;20297;-88
2022/12/19 16:51:08;;;;;;;27.60;10.77;;;;;;;;;;6215861;28;20277;-87
2022/12/19 16:54:13;;;;;;;30.80;11.67;;;;;;;;;;6189738;28;20512;-87
2022/12/19 16:57:21;;;;;;;29.83;11.53;;;;;;;;;;6198909;28;20560;-86
2022/12/19 17:00:30;;;;;;;27.43;10.50;;;;;;;;;;6198417;28;20395;-86
2022/12/19 17:03:42;;;;;;;30.60;11.27;;;;;;;;;;6175171;28;20305;-86
2022/12/19 17:06:47;;;;;;;29.30;11.10;;;;;;;;;;6189698;28;20292;-88
2022/12/19 17:09:56;;;;;;;26.67;11.37;;;;;;;;;;6191201;28;20302;-87
2022/12/19 17:13:05;;;;;;;36.07;12.07;;;;;;;;;;6193371;28;20310;-86
2022/12/19 17:16:16;;;;;;;26.97;10.70;;;;;;;;;;6162020;28;20273;-85
2022/12/19 17:19:26;;;;;;;25.40;11.63;;;;;;;;;;6190349;28;20609;-88
2022/12/19 17:22:33;;;;;;;29.90;11.13;;;;;;;;;;6191385;28;20300;-87
2022/12/19 17:25:39;;;;;;;21.30;8.73;;;;;;;;;;6191251;28;20297;-86
2022/12/19 17:28:47;;;;;;;24.43;10.97;;;;;;;;;;6195194;28;20292;-84
2022/12/19 17:31:54;;;;;;;21.17;9.97;;;;;;;;;;6192150;28;20289;-82
2022/12/19 17:35:01;;;;;;;26.43;11.00;;;;;;;;;;6162360;28;20289;-82
2022/12/19 17:38:14;;;;;;;26.10;10.90;;;;;;;;;;6194413;28;20304;-84
2022/12/19 17:41:22;;;;;;;28.73;11.90;;;;;;;;;;6178983;28;20271;-84
2022/12/19 17:44:37;;;;;;;37.53;12.37;;;;;;;;;;6192828;28;20308;-83
2022/12/19 17:47:47;;;;;;;29.60;11.87;;;;;;;;;;6192036;28;20486;-83
2022/12/19 17:50:53;;;;;;;27.70;10.67;;;;;;;;;;6191852;28;20288;-84
2022/12/19 17:54:00;;;;;;;25.07;11.13;;;;;;;;;;6190803;28;20326;-86
2022/12/19 17:57:05;;;;;;;28.60;12.20;;;;;;;;;;6187795;28;20276;-83
2022/12/19 18:00:15;;;;;;;25.77;11.67;;;;;;;;;;6191075;28;20289;-86
2022/12/19 18:03:25;;;;;;;26.60;11.37;;;;;;;;;;6188958;28;20321;-86
2022/12/19 18:06:31;;;;;;;24.17;11.43;;;;;;;;;;6190351;28;20362;-86
2022/12/19 18:09:36;;;;;;;30.30;11.70;;;;;;;;;;6192039;28;20300;-87
2022/12/19 18:12:54;;;;;;;24.60;11.57;;;;;;;;;;6216344;28;20296;-86
2022/12/19 18:16:00;;;;;;;28.23;11.93;;;;;;;;;;6215727;28;20280;-86
2022/12/19 18:19:11;;;;;;;27.80;11.80;;;;;;;;;;6213837;28;20304;-90
2022/12/19 18:22:21;;;;;;;26.93;10.63;;;;;;;;;;6210761;28;20306;-87
2022/12/19 18:25:38;;;;;;;23.30;11.70;;;;;;;;;;6211033;28;20283;-92
2022/12/19 18:28:44;;;;;;;27.90;12.13;;;;;;;;;;6214119;28;20315;-89
2022/12/19 18:31:53;;;;;;;29.17;11.37;;;;;;;;;;6213283;28;20276;-88
2022/12/19 18:35:05;;;;;;;25.73;10.80;;;;;;;;;;6211493;28;20273;-90
2022/12/19 18:38:15;;;;;;;29.13;11.50;;;;;;;;;;6196077;28;20481;-89
2022/12/19 18:41:22;;;;;;;25.70;11.47;;;;;;;;;;6213139;28;20280;-89
2022/12/19 18:44:30;;;;;;;24.13;10.93;;;;;;;;;;6215599;28;20296;-89
2022/12/19 18:47:40;;;;;;;27.37;11.87;;;;;;;;;;6199687;28;20314;-84
2022/12/19 18:50:52;;;;;;;32.47;12.03;;;;;;;;;;6214480;28;20280;-82
2022/12/19 18:54:00;;;;;;;26.53;10.70;;;;;;;;;;6214923;28;20306;-88
2022/12/19 18:57:06;;;;;;;29.00;11.80;;;;;;;;;;6216337;28;20272;-84
2022/12/19 19:00:14;;;;;;;24.37;11.37;;;;;;;;;;6213430;28;20312;-87
2022/12/19 19:03:25;;;;;;;27.43;11.20;;;;;;;;;;6211101;28;20300;-84